createdAt,value
2022-12-14T00:01:54.350Z,11.25
2022-12-14T00:04:23.837Z,11.25
2022-12-14T00:06:52.576Z,11.75
2022-12-14T00:09:20.640Z,13.05
2022-12-14T00:11:48.683Z,11.70
2022-12-14T00:14:16.725Z,11.75
2022-12-14T00:16:44.806Z,11.70
2022-12-14T00:19:13.305Z,12.35
2022-12-14T00:21:42.799Z,11.93
2022-12-14T00:24:11.430Z,11.32
2022-12-14T00:26:39.506Z,12.18
2022-12-14T00:29:07.574Z,14.02
2022-12-14T00:31:36.419Z,12.68
2022-12-14T00:34:04.583Z,12.10
2022-12-14T00:36:32.622Z,12.48
2022-12-14T00:39:02.103Z,12.43
2022-12-14T00:41:30.257Z,12.45
2022-12-14T00:43:58.286Z,12.35
2022-12-14T00:46:26.396Z,10.70
2022-12-14T00:48:54.635Z,11.38
2022-12-14T00:51:22.679Z,9.73
2022-12-14T00:53:50.732Z,9.68
2022-12-14T00:56:20.164Z,10.30
2022-12-14T00:58:51.977Z,10.65
2022-12-14T01:01:20.478Z,10.85
2022-12-14T01:03:48.950Z,9.85
2022-12-14T01:06:18.706Z,9.18
2022-12-14T01:08:48.202Z,9.57
2022-12-14T01:11:16.283Z,10.55
2022-12-14T01:13:49.160Z,14.77
2022-12-14T01:16:18.903Z,13.40
2022-12-14T01:18:47.002Z,11.55
2022-12-14T01:21:16.778Z,11.93
2022-12-14T01:23:46.052Z,10.50
2022-12-14T01:26:14.773Z,10.75
2022-12-14T01:28:43.085Z,11.70
2022-12-14T01:31:14.730Z,11.27
2022-12-14T01:33:43.209Z,11.27
2022-12-14T01:36:13.152Z,10.00
2022-12-14T01:38:41.450Z,9.55
2022-12-14T01:41:14.091Z,11.00
2022-12-14T01:43:49.758Z,9.95
2022-12-14T01:46:26.183Z,10.35
2022-12-14T01:48:57.464Z,11.77
2022-12-14T01:51:28.009Z,10.40
2022-12-14T01:53:57.896Z,10.93
2022-12-14T01:56:26.194Z,10.63
2022-12-14T01:58:54.575Z,10.60
2022-12-14T02:01:24.065Z,10.45
2022-12-14T02:03:54.702Z,11.02
2022-12-14T02:06:27.286Z,9.63
2022-12-14T02:08:56.801Z,9.85
2022-12-14T02:11:34.051Z,10.48
2022-12-14T02:14:02.104Z,9.80
2022-12-14T02:16:32.908Z,10.02
2022-12-14T02:19:00.978Z,9.65
2022-12-14T02:21:42.554Z,10.10
2022-12-14T02:24:45.501Z,10.27
2022-12-14T02:28:00.116Z,9.18
2022-12-14T02:30:34.894Z,10.60
2022-12-14T02:33:30.783Z,10.40
2022-12-14T02:36:03.448Z,10.10
2022-12-14T02:38:47.287Z,9.15
2022-12-14T02:41:23.894Z,9.60
2022-12-14T02:44:04.283Z,9.02
2022-12-14T02:46:43.252Z,9.07
2022-12-14T02:49:23.650Z,8.98
2022-12-14T02:51:58.450Z,9.02
2022-12-14T02:54:32.473Z,10.75
2022-12-14T02:57:06.701Z,9.30
2022-12-14T02:59:35.395Z,9.10
2022-12-14T03:02:06.046Z,8.85
2022-12-14T03:04:47.556Z,9.95
2022-12-14T03:07:34.329Z,11.35
2022-12-14T03:10:07.899Z,10.85
2022-12-14T03:12:38.797Z,9.35
2022-12-14T03:15:09.537Z,11.80
2022-12-14T03:17:40.948Z,10.05
2022-12-14T03:20:12.375Z,8.88
2022-12-14T03:22:44.402Z,7.97
2022-12-14T03:25:17.471Z,8.90
2022-12-14T03:27:52.186Z,8.15
2022-12-14T03:30:37.202Z,7.38
2022-12-14T03:33:17.076Z,7.72
2022-12-14T03:35:50.707Z,7.97
2022-12-14T03:38:23.828Z,7.60
2022-12-14T03:41:03.174Z,7.72
2022-12-14T03:43:38.121Z,8.45
2022-12-14T03:46:14.150Z,8.55
2022-12-14T03:48:48.780Z,7.97
2022-12-14T03:51:24.617Z,7.25
2022-12-14T03:54:03.728Z,8.55
2022-12-14T03:56:40.388Z,7.75
2022-12-14T03:59:14.461Z,8.57
2022-12-14T04:01:49.305Z,8.15
2022-12-14T04:04:25.114Z,8.20
2022-12-14T04:06:57.258Z,8.75
2022-12-14T04:09:32.613Z,7.63
2022-12-14T04:12:23.895Z,8.10
2022-12-14T04:15:22.449Z,7.90
2022-12-14T04:18:12.585Z,7.43
2022-12-14T04:20:46.715Z,6.95
2022-12-14T04:23:41.319Z,7.38
2022-12-14T04:26:14.397Z,7.32
2022-12-14T04:29:06.582Z,8.50
2022-12-14T04:34:06.974Z,7.75
2022-12-14T04:36:42.098Z,5.50
2022-12-14T04:39:20.602Z,6.97
2022-12-14T04:41:53.995Z,7.63
2022-12-14T04:44:27.580Z,7.63
2022-12-14T04:46:57.496Z,7.45
2022-12-14T04:49:30.576Z,7.40
2022-12-14T04:52:05.999Z,7.20
2022-12-14T04:54:39.637Z,7.38
2022-12-14T04:57:19.072Z,8.68
2022-12-14T04:59:48.653Z,6.68
2022-12-14T05:02:24.554Z,7.05
2022-12-14T05:04:58.215Z,7.70
2022-12-14T05:07:36.178Z,7.70
2022-12-14T05:10:08.628Z,7.88
2022-12-14T05:12:44.685Z,7.05
2022-12-14T05:15:16.799Z,7.30
2022-12-14T05:17:45.051Z,7.72
2022-12-14T05:20:18.318Z,6.63
2022-12-14T05:22:47.777Z,9.48
2022-12-14T05:25:15.871Z,6.82
2022-12-14T05:27:44.057Z,7.30
2022-12-14T05:30:13.154Z,7.50
2022-12-14T05:32:41.400Z,7.07
2022-12-14T05:35:13.327Z,7.13
2022-12-14T05:40:12.168Z,7.07
2022-12-14T05:42:44.746Z,7.43
2022-12-14T05:45:14.979Z,7.47
2022-12-14T05:47:43.031Z,6.63
2022-12-14T05:50:11.246Z,7.63
2022-12-14T05:52:39.292Z,7.43
2022-12-14T05:55:08.329Z,7.50
2022-12-14T05:57:37.718Z,7.40
2022-12-14T06:00:06.325Z,6.53
2022-12-14T06:02:34.417Z,8.80
2022-12-14T06:05:02.498Z,7.07
2022-12-14T06:07:30.539Z,7.22
2022-12-14T06:09:58.645Z,7.18
2022-12-14T06:12:27.222Z,7.95
2022-12-14T06:14:56.642Z,7.40
2022-12-14T06:17:24.761Z,7.80
2022-12-14T06:19:52.835Z,7.63
2022-12-14T06:22:22.158Z,7.13
2022-12-14T06:24:50.199Z,6.82
2022-12-14T06:27:18.235Z,9.90
2022-12-14T06:29:46.273Z,11.35
2022-12-14T06:32:15.657Z,12.20
2022-12-14T06:34:43.691Z,9.65
2022-12-14T06:37:11.847Z,8.85
2022-12-14T06:39:39.935Z,9.75
2022-12-14T06:42:08.398Z,8.88
2022-12-14T06:48:18.866Z,9.50
2022-12-14T06:50:47.006Z,11.00
2022-12-14T06:53:15.326Z,10.65
2022-12-14T06:55:43.595Z,9.10
2022-12-14T06:58:17.513Z,9.30
2022-12-14T07:00:45.731Z,8.73
2022-12-14T07:03:13.908Z,8.30
2022-12-14T07:05:48.786Z,7.05
2022-12-14T07:08:17.279Z,7.82
2022-12-14T07:10:45.442Z,7.50
2022-12-14T07:13:13.587Z,7.85
2022-12-14T07:15:41.758Z,7.70
2022-12-14T07:18:09.970Z,7.32
2022-12-14T07:20:38.148Z,7.55
2022-12-14T07:23:07.697Z,7.03
2022-12-14T07:25:35.835Z,7.90
2022-12-14T07:28:03.996Z,6.68
2022-12-14T07:30:32.127Z,7.20
2022-12-14T07:33:00.299Z,6.65
2022-12-14T07:35:28.486Z,7.10
2022-12-14T07:37:56.664Z,7.38
2022-12-14T07:40:26.180Z,7.70
2022-12-14T07:42:54.376Z,7.55
2022-12-14T07:45:22.556Z,6.93
2022-12-14T07:47:50.704Z,10.05
2022-12-14T07:50:18.944Z,8.65
2022-12-14T07:52:47.055Z,6.85
2022-12-14T07:55:15.278Z,6.93
2022-12-14T07:57:44.843Z,6.50
2022-12-14T08:00:14.152Z,6.78
2022-12-14T08:02:42.348Z,7.30
2022-12-14T08:05:12.746Z,6.90
2022-12-14T08:07:41.264Z,7.65
2022-12-14T08:10:09.834Z,6.93
2022-12-14T08:12:37.962Z,6.43
2022-12-14T08:15:09.317Z,6.25
2022-12-14T08:17:37.453Z,6.82
2022-12-14T08:20:06.603Z,6.93
2022-12-14T08:22:34.801Z,7.00
2022-12-14T08:25:02.981Z,6.47
2022-12-14T08:27:31.633Z,6.75
2022-12-14T08:29:59.916Z,6.47
2022-12-14T08:32:34.099Z,6.82
2022-12-14T08:35:02.684Z,6.22
2022-12-14T08:37:30.830Z,6.57
2022-12-14T08:39:59.543Z,6.03
2022-12-14T08:42:27.694Z,6.32
2022-12-14T08:44:55.831Z,7.57
2022-12-14T08:47:24.145Z,6.75
2022-12-14T08:49:54.331Z,6.80
2022-12-14T08:52:22.713Z,6.10
2022-12-14T08:54:50.872Z,5.80
2022-12-14T08:57:19.026Z,7.82
2022-12-14T09:00:02.992Z,7.00
2022-12-14T09:02:31.699Z,6.85
2022-12-14T09:05:01.300Z,5.90
2022-12-14T09:07:29.678Z,7.50
2022-12-14T09:09:57.858Z,6.50
2022-12-14T09:12:26.266Z,7.75
2022-12-14T09:14:54.392Z,7.88
2022-12-14T09:17:22.548Z,6.28
2022-12-14T09:19:50.723Z,6.43
2022-12-14T09:22:20.636Z,6.40
2022-12-14T09:24:50.640Z,6.68
2022-12-14T09:27:19.340Z,6.80
2022-12-14T09:29:47.745Z,6.35
2022-12-14T09:32:15.899Z,6.55
2022-12-14T09:34:44.279Z,6.75
2022-12-14T09:37:12.635Z,6.90
2022-12-14T09:39:42.322Z,6.82
2022-12-14T09:42:26.123Z,6.25
2022-12-14T09:45:01.760Z,6.38
2022-12-14T09:47:36.283Z,6.32
2022-12-14T09:50:06.473Z,6.68
2022-12-14T09:52:41.644Z,7.20
2022-12-14T09:55:19.899Z,6.78
2022-12-14T09:57:51.440Z,7.10
2022-12-14T10:00:21.027Z,6.60
2022-12-14T10:03:10.122Z,6.85
2022-12-14T10:05:55.953Z,6.07
2022-12-14T10:08:29.290Z,7.03
2022-12-14T10:11:07.328Z,6.82
2022-12-14T10:13:47.832Z,6.53
2022-12-14T10:16:23.855Z,7.05
2022-12-14T10:19:11.358Z,7.20
2022-12-14T10:21:48.621Z,6.72
2022-12-14T10:24:24.075Z,6.85
2022-12-14T10:26:55.919Z,7.25
2022-12-14T10:29:32.354Z,6.85
2022-12-14T10:32:07.915Z,6.93
2022-12-14T10:34:37.436Z,6.88
2022-12-14T10:37:25.638Z,6.80
2022-12-14T10:40:13.778Z,7.10
2022-12-14T10:42:56.811Z,8.32
2022-12-14T10:45:40.376Z,7.88
2022-12-14T10:48:33.876Z,6.78
2022-12-14T10:51:07.239Z,7.72
2022-12-14T10:53:41.652Z,7.53
2022-12-14T10:56:15.659Z,8.27
2022-12-14T10:58:45.220Z,8.57
2022-12-14T11:01:15.775Z,9.00
2022-12-14T11:03:46.764Z,8.80
2022-12-14T11:06:18.263Z,8.25
2022-12-14T11:08:49.069Z,7.35
2022-12-14T11:11:19.952Z,7.57
2022-12-14T11:13:54.590Z,7.93
2022-12-14T11:16:35.402Z,8.15
2022-12-14T11:19:06.753Z,8.18
2022-12-14T11:21:37.143Z,6.75
2022-12-14T11:24:06.454Z,6.78
2022-12-14T11:26:39.140Z,6.50
2022-12-14T11:29:18.278Z,6.47
2022-12-14T11:31:48.887Z,6.75
2022-12-14T11:34:38.300Z,7.25
2022-12-14T11:37:14.875Z,6.50
2022-12-14T11:39:43.638Z,6.88
2022-12-14T11:42:18.924Z,6.97
2022-12-14T11:44:49.862Z,7.10
2022-12-14T11:47:20.075Z,7.32
2022-12-14T11:49:50.452Z,7.35
2022-12-14T11:52:20.241Z,8.13
2022-12-14T11:55:03.506Z,7.07
2022-12-14T11:57:35.283Z,8.15
2022-12-14T12:00:07.882Z,8.85
2022-12-14T12:02:38.932Z,7.50
2022-12-14T12:05:10.561Z,8.10
2022-12-14T12:07:40.622Z,7.60
2022-12-14T12:10:20.128Z,8.23
2022-12-14T12:12:55.052Z,7.53
2022-12-14T12:15:37.092Z,9.18
2022-12-14T12:18:09.511Z,8.00
2022-12-14T12:20:42.579Z,8.35
2022-12-14T12:23:15.481Z,7.43
2022-12-14T12:25:46.790Z,7.63
2022-12-14T12:28:19.830Z,6.20
2022-12-14T12:30:53.232Z,7.82
2022-12-14T12:33:32.359Z,8.35
2022-12-14T12:36:05.583Z,8.45
2022-12-14T12:38:49.754Z,7.75
2022-12-14T12:41:28.939Z,8.15
2022-12-14T12:44:06.371Z,8.52
2022-12-14T12:47:14.991Z,9.05
2022-12-14T12:49:34.581Z,11.88
2022-12-14T12:52:06.495Z,10.13
2022-12-14T12:57:08.158Z,8.13
2022-12-14T12:59:41.768Z,7.75
2022-12-14T13:02:21.463Z,7.68
2022-12-14T13:04:52.902Z,7.32
2022-12-14T13:07:30.136Z,7.22
2022-12-14T13:10:05.937Z,7.85
2022-12-14T13:12:38.857Z,7.93
2022-12-14T13:15:16.792Z,7.50
2022-12-14T13:17:50.647Z,8.35
2022-12-14T13:20:25.372Z,7.32
2022-12-14T13:22:54.978Z,7.60
2022-12-14T13:25:26.701Z,7.60
2022-12-14T13:28:24.492Z,7.70
2022-12-14T13:31:06.212Z,7.63
2022-12-14T13:33:59.386Z,7.93
2022-12-14T13:37:00.515Z,7.20
2022-12-14T13:39:52.854Z,7.28
2022-12-14T13:42:32.807Z,7.63
2022-12-14T13:45:02.704Z,7.60
2022-12-14T13:47:36.002Z,7.53
2022-12-14T13:53:01.504Z,7.22
2022-12-14T13:55:35.636Z,8.80
2022-12-14T13:58:17.449Z,8.35
2022-12-14T14:01:00.428Z,7.50
2022-12-14T14:03:51.234Z,6.75
2022-12-14T14:06:36.754Z,6.90
2022-12-14T14:09:42.274Z,7.72
2022-12-14T14:12:38.683Z,6.68
2022-12-14T14:15:51.948Z,7.05
2022-12-14T14:18:28.996Z,7.47
2022-12-14T14:21:31.172Z,8.68
2022-12-14T14:24:00.963Z,9.32
2022-12-14T14:26:31.152Z,7.63
2022-12-14T14:29:23.512Z,7.15
2022-12-14T14:31:58.173Z,7.40
2022-12-14T14:34:49.090Z,7.47
2022-12-14T14:40:23.857Z,6.40
2022-12-14T14:43:03.977Z,6.75
2022-12-14T14:45:39.715Z,6.90
2022-12-14T14:48:21.703Z,6.88
2022-12-14T14:51:01.999Z,6.70
2022-12-14T14:53:33.567Z,7.00
2022-12-14T14:56:13.715Z,7.05
2022-12-14T14:58:43.226Z,7.80
2022-12-14T15:01:21.887Z,6.88
2022-12-14T15:03:55.348Z,7.05
2022-12-14T15:06:26.439Z,9.20
2022-12-14T15:09:03.995Z,12.63
2022-12-14T15:11:42.904Z,16.20
2022-12-14T15:14:35.035Z,31.50
2022-12-14T15:17:14.765Z,13.95
2022-12-14T15:19:48.388Z,10.02
2022-12-14T15:22:19.761Z,10.63
2022-12-14T15:24:52.155Z,17.67
2022-12-14T15:27:26.137Z,26.73
2022-12-14T15:29:55.699Z,28.42
2022-12-14T15:32:26.119Z,17.00
2022-12-14T15:34:56.985Z,12.82
2022-12-14T15:37:29.085Z,10.27
2022-12-14T15:40:08.406Z,9.73
2022-12-14T15:42:45.658Z,9.43
2022-12-14T15:45:16.016Z,11.65
2022-12-14T15:47:44.213Z,13.20
2022-12-14T15:50:21.680Z,11.68
2022-12-14T15:52:51.028Z,9.18
2022-12-14T15:55:30.572Z,8.57
2022-12-14T15:58:01.064Z,8.18
2022-12-14T16:00:29.648Z,7.93
2022-12-14T16:02:58.084Z,8.10
2022-12-14T16:05:36.396Z,7.40
2022-12-14T16:08:04.712Z,7.82
2022-12-14T16:10:35.286Z,7.65
2022-12-14T16:13:07.065Z,8.55
2022-12-14T16:15:35.551Z,7.75
2022-12-14T16:18:04.028Z,11.63
2022-12-14T16:20:34.849Z,9.43
2022-12-14T16:23:06.268Z,8.52
2022-12-14T16:25:38.505Z,7.15
2022-12-14T16:28:26.734Z,8.50
2022-12-14T16:30:57.594Z,8.15
2022-12-14T16:33:26.449Z,8.93
2022-12-14T16:36:07.641Z,8.10
2022-12-14T16:38:41.892Z,7.60
2022-12-14T16:41:11.415Z,7.43
2022-12-14T16:43:42.171Z,7.70
2022-12-14T16:46:16.217Z,8.32
2022-12-14T16:48:50.229Z,7.00
2022-12-14T16:52:05.170Z,8.18
2022-12-14T16:54:28.215Z,10.15
2022-12-14T16:57:04.723Z,14.15
2022-12-14T16:59:43.325Z,13.13
2022-12-14T17:02:28.505Z,12.52
2022-12-14T17:05:01.543Z,15.27
2022-12-14T17:07:37.248Z,13.25
2022-12-14T17:10:08.627Z,11.63
2022-12-14T17:12:42.658Z,13.30
2022-12-14T17:15:15.827Z,16.05
2022-12-14T17:17:49.501Z,13.13
2022-12-14T17:20:28.547Z,9.82
2022-12-14T17:22:59.632Z,7.75
2022-12-14T17:25:30.786Z,8.75
2022-12-14T17:28:04.529Z,10.60
2022-12-14T17:30:34.213Z,10.77
2022-12-14T17:33:05.182Z,13.30
2022-12-14T17:35:37.806Z,10.13
2022-12-14T17:38:15.574Z,9.75
2022-12-14T17:40:46.472Z,10.57
2022-12-14T17:43:19.348Z,9.07
2022-12-14T17:45:48.091Z,8.27
2022-12-14T17:48:17.604Z,8.05
2022-12-14T17:50:48.083Z,8.63
2022-12-14T17:53:17.515Z,8.45
2022-12-14T17:55:45.761Z,8.40
2022-12-14T17:58:15.563Z,28.48
2022-12-14T18:01:01.863Z,26.95
2022-12-14T18:03:32.287Z,13.98
2022-12-14T18:06:00.866Z,12.38
2022-12-14T18:08:29.141Z,11.73
2022-12-14T18:10:59.085Z,10.93
2022-12-14T18:13:31.377Z,13.20
2022-12-14T18:16:00.630Z,12.18
2022-12-14T18:18:29.580Z,10.73
2022-12-14T18:21:00.224Z,11.82
2022-12-14T18:23:30.314Z,10.55
2022-12-14T18:25:59.964Z,12.05
2022-12-14T18:28:29.502Z,14.73
2022-12-14T18:31:00.498Z,15.88
2022-12-14T18:33:29.739Z,13.00
2022-12-14T18:35:58.609Z,20.13
2022-12-14T18:38:27.612Z,15.70
2022-12-14T18:40:58.512Z,14.45
2022-12-14T18:43:29.713Z,12.95
2022-12-14T18:45:58.450Z,10.50
2022-12-14T18:48:27.015Z,10.93
2022-12-14T18:50:56.365Z,25.15
2022-12-14T18:53:25.700Z,16.10
2022-12-14T18:55:54.578Z,10.98
2022-12-14T18:58:24.668Z,9.68
2022-12-14T19:00:56.350Z,10.40
2022-12-14T19:03:25.196Z,12.77
2022-12-14T19:06:26.774Z,13.15
2022-12-14T19:08:50.905Z,11.07
2022-12-14T19:11:29.655Z,11.98
2022-12-14T19:13:57.931Z,12.88
2022-12-14T19:16:28.052Z,12.07
2022-12-14T19:18:56.747Z,11.80
2022-12-14T19:21:25.409Z,11.05
2022-12-14T19:23:53.819Z,11.45
2022-12-14T19:26:22.198Z,13.68
2022-12-14T19:28:50.353Z,14.18
2022-12-14T19:31:18.628Z,13.82
2022-12-14T19:33:48.199Z,18.02
2022-12-14T19:36:16.490Z,16.73
2022-12-14T19:38:49.290Z,15.18
2022-12-14T19:41:20.435Z,14.02
2022-12-14T19:43:48.983Z,11.60
2022-12-14T19:46:17.940Z,12.52
2022-12-14T19:48:47.826Z,14.30
2022-12-14T19:51:16.256Z,12.52
2022-12-14T19:53:45.828Z,12.52
2022-12-14T19:56:16.889Z,13.10
2022-12-14T19:58:45.087Z,11.35
2022-12-14T20:01:16.803Z,12.38
2022-12-14T20:03:45.256Z,14.65
2022-12-14T20:06:14.932Z,13.35
2022-12-14T20:08:43.091Z,12.63
2022-12-14T20:11:12.869Z,12.82
2022-12-14T20:13:41.019Z,11.65
2022-12-14T20:16:09.351Z,13.63
2022-12-14T20:18:37.530Z,12.75
2022-12-14T20:21:07.508Z,11.95
2022-12-14T20:23:38.631Z,11.57
2022-12-14T20:26:09.858Z,11.40
2022-12-14T20:28:38.035Z,10.13
2022-12-14T20:31:07.817Z,12.73
2022-12-14T20:33:36.949Z,13.57
2022-12-14T20:36:06.062Z,18.85
2022-12-14T20:38:34.386Z,15.30
2022-12-14T20:41:07.967Z,13.25
2022-12-14T20:43:36.862Z,18.80
2022-12-14T20:46:05.448Z,18.65
2022-12-14T20:48:34.163Z,16.15
2022-12-14T20:51:04.162Z,15.68
2022-12-14T20:53:32.644Z,12.65
2022-12-14T20:56:04.724Z,17.58
2022-12-14T21:01:07.324Z,18.83
2022-12-14T21:03:36.420Z,14.75
2022-12-14T21:06:04.980Z,15.18
2022-12-14T21:08:53.138Z,13.63
2022-12-14T21:11:38.890Z,13.88
2022-12-14T21:14:08.415Z,14.88
2022-12-14T21:16:37.650Z,16.90
2022-12-14T21:19:06.358Z,20.08
2022-12-14T21:21:34.662Z,24.23
2022-12-14T21:24:02.807Z,25.75
2022-12-14T21:26:30.947Z,23.38
2022-12-14T21:29:01.602Z,22.02
2022-12-14T21:31:31.247Z,21.33
2022-12-14T21:33:59.420Z,23.35
2022-12-14T21:36:27.657Z,23.27
2022-12-14T21:38:56.052Z,24.35
2022-12-14T21:41:41.496Z,19.95
2022-12-14T21:44:09.719Z,15.75
2022-12-14T21:46:39.334Z,15.45
2022-12-14T21:49:07.534Z,17.00
2022-12-14T21:51:35.720Z,17.25
2022-12-14T21:54:04.176Z,23.08
2022-12-14T21:56:51.445Z,17.92
2022-12-14T21:59:25.395Z,16.45
2022-12-14T22:01:55.769Z,18.55
2022-12-14T22:04:25.071Z,20.73
2022-12-14T22:06:53.267Z,19.05
2022-12-14T22:09:22.404Z,18.25
2022-12-14T22:11:51.019Z,25.80
2022-12-14T22:14:21.411Z,23.33
2022-12-14T22:16:50.171Z,19.58
2022-12-14T22:19:21.353Z,17.15
2022-12-14T22:21:49.755Z,17.05
2022-12-14T22:24:18.280Z,17.45
2022-12-14T22:26:46.693Z,16.98
2022-12-14T22:29:16.059Z,16.23
2022-12-14T22:31:44.503Z,16.42
2022-12-14T22:34:17.186Z,16.50
2022-12-14T22:36:47.124Z,21.13
2022-12-14T22:39:15.418Z,21.67
2022-12-14T22:41:43.781Z,17.98
2022-12-14T22:44:12.975Z,17.67
2022-12-14T22:46:41.737Z,16.30
2022-12-14T22:49:11.504Z,18.02
2022-12-14T22:51:39.631Z,16.65
2022-12-14T22:54:11.410Z,18.17
2022-12-14T22:59:12.595Z,16.58
2022-12-14T23:01:41.884Z,14.45
2022-12-14T23:04:13.555Z,15.63
2022-12-14T23:06:42.856Z,15.45
2022-12-14T23:09:29.640Z,15.55
2022-12-14T23:12:21.270Z,16.95
2022-12-14T23:15:07.857Z,25.90
2022-12-14T23:17:53.789Z,23.50
2022-12-14T23:20:39.561Z,20.42
2022-12-14T23:23:25.788Z,17.45
2022-12-14T23:26:12.757Z,14.70
2022-12-14T23:28:58.843Z,15.30
2022-12-14T23:31:44.430Z,14.95
2022-12-14T23:34:30.011Z,16.25
2022-12-14T23:37:20.242Z,15.93
2022-12-14T23:40:06.575Z,15.75
2022-12-14T23:42:53.575Z,14.52
2022-12-14T23:45:39.018Z,16.17
2022-12-14T23:48:24.763Z,14.85
2022-12-14T23:51:10.335Z,14.82
2022-12-14T23:53:55.863Z,15.55
2022-12-14T23:56:41.354Z,14.55
2022-12-14T23:59:32.445Z,16.15
